createdAt,value
2022-10-14T03:59:10.419Z,0.00
2022-10-14T04:00:10.383Z,0.00
2022-10-14T04:01:10.390Z,0.00
2022-10-14T04:02:10.444Z,0.00
2022-10-14T04:03:10.419Z,0.00
2022-10-14T04:04:10.421Z,0.00
2022-10-14T04:05:10.387Z,0.00
2022-10-14T04:06:10.399Z,0.00
2022-10-14T04:07:10.386Z,0.00
2022-10-14T04:08:10.422Z,0.00
2022-10-14T04:09:10.400Z,0.00
2022-10-14T04:10:09.717Z,0.00
2022-10-14T04:11:10.393Z,0.00
2022-10-14T04:12:10.391Z,0.00
2022-10-14T04:13:10.413Z,0.00
2022-10-14T04:14:10.393Z,0.00
2022-10-14T04:15:10.409Z,0.00
2022-10-14T04:16:10.399Z,0.00
2022-10-14T04:17:10.394Z,0.00
2022-10-14T04:18:10.461Z,0.00
2022-10-14T04:19:10.390Z,0.00
2022-10-14T04:20:10.429Z,0.00
2022-10-14T04:21:08.675Z,0.00
2022-10-14T04:22:08.675Z,0.00
2022-10-14T04:23:09.684Z,0.00
2022-10-14T04:24:08.777Z,0.00
2022-10-14T04:25:10.436Z,0.00
2022-10-14T04:26:09.679Z,0.00
2022-10-14T04:27:08.691Z,0.00
2022-10-14T04:28:09.655Z,0.00
2022-10-14T04:29:08.664Z,0.00
2022-10-14T04:30:10.429Z,0.00
2022-10-14T04:31:09.672Z,0.00
2022-10-14T04:32:10.406Z,0.00
2022-10-14T04:33:09.636Z,0.00
2022-10-14T04:34:08.643Z,0.00
2022-10-14T04:35:10.440Z,0.00
2022-10-14T04:36:08.627Z,0.00
2022-10-14T04:37:08.628Z,0.00
2022-10-14T04:38:09.625Z,0.00
2022-10-14T04:39:10.417Z,0.00
2022-10-14T04:40:09.925Z,0.00
2022-10-14T04:41:10.431Z,0.00
2022-10-14T04:42:10.419Z,0.00
2022-10-14T04:43:10.432Z,0.00
2022-10-14T04:44:10.432Z,0.00
2022-10-14T04:45:11.435Z,0.00
2022-10-14T04:46:09.601Z,0.00
2022-10-14T04:47:10.478Z,0.00
2022-10-14T04:48:09.945Z,0.00
2022-10-14T04:49:08.580Z,0.00
2022-10-14T04:50:10.446Z,0.00
2022-10-14T04:51:08.578Z,0.00
2022-10-14T04:52:08.585Z,0.00
2022-10-14T04:53:13.474Z,0.00
2022-10-14T04:54:09.571Z,0.00
2022-10-14T04:55:10.469Z,0.00
2022-10-14T04:56:08.556Z,0.00
2022-10-14T04:57:10.435Z,0.00
2022-10-14T04:58:10.469Z,0.00
2022-10-14T04:59:10.427Z,0.00
2022-10-14T05:00:10.424Z,0.00
2022-10-14T05:01:10.437Z,0.00
2022-10-14T05:02:10.517Z,0.00
2022-10-14T05:03:10.477Z,0.00
2022-10-14T05:04:10.440Z,0.00
2022-10-14T05:05:10.432Z,0.00
2022-10-14T05:06:10.486Z,0.00
2022-10-14T05:07:10.444Z,0.00
2022-10-14T05:08:10.464Z,0.00
2022-10-14T05:09:10.435Z,0.00
2022-10-14T05:10:10.449Z,0.00
2022-10-14T05:11:10.488Z,0.00
2022-10-14T05:12:10.451Z,0.00
2022-10-14T05:13:10.463Z,0.00
2022-10-14T05:14:08.509Z,0.00
2022-10-14T05:15:08.502Z,0.00
2022-10-14T05:16:10.504Z,0.00
2022-10-14T05:17:08.488Z,0.00
2022-10-14T05:18:09.452Z,0.00
2022-10-14T05:19:09.966Z,0.00
2022-10-14T05:20:08.490Z,0.00
2022-10-14T05:21:10.479Z,0.00
2022-10-14T05:22:10.474Z,0.00
2022-10-14T05:23:08.496Z,0.00
2022-10-14T05:24:08.481Z,0.00
2022-10-14T05:25:10.015Z,4.00
2022-10-14T05:26:09.979Z,4.00
2022-10-14T05:27:09.975Z,0.00
2022-10-14T05:28:09.995Z,0.00
2022-10-14T05:29:09.981Z,4.00
2022-10-14T05:30:09.976Z,4.00
2022-10-14T05:31:09.474Z,4.00
2022-10-14T05:32:09.963Z,4.00
2022-10-14T05:33:09.469Z,8.00
2022-10-14T05:34:10.004Z,4.00
2022-10-14T05:35:10.023Z,8.00
2022-10-14T05:36:09.500Z,8.00
2022-10-14T05:37:10.035Z,12.00
2022-10-14T05:38:09.962Z,12.00
2022-10-14T05:39:10.020Z,12.00
2022-10-14T05:40:09.981Z,16.00
2022-10-14T05:41:10.005Z,20.00
2022-10-14T05:42:09.966Z,20.00
2022-10-14T05:43:08.477Z,24.00
2022-10-14T05:44:08.417Z,24.00
2022-10-14T05:45:09.982Z,32.00
2022-10-14T05:46:08.417Z,36.00
2022-10-14T05:47:08.405Z,40.00
2022-10-14T05:48:08.429Z,48.00
2022-10-14T05:49:12.519Z,52.00
2022-10-14T05:50:08.396Z,56.00
2022-10-14T05:51:08.479Z,64.00
2022-10-14T05:52:08.386Z,68.00
2022-10-14T05:53:08.429Z,76.00
2022-10-14T05:54:09.997Z,80.00
2022-10-14T05:55:08.409Z,84.00
2022-10-14T05:56:08.591Z,92.00
2022-10-14T05:57:08.672Z,100.00
2022-10-14T05:58:08.366Z,108.00
2022-10-14T05:59:09.981Z,116.00
2022-10-14T06:00:10.036Z,128.00
2022-10-14T06:01:08.528Z,132.00
2022-10-14T06:02:10.042Z,140.00
2022-10-14T06:03:08.469Z,144.00
2022-10-14T06:04:10.098Z,148.00
2022-10-14T06:05:09.537Z,156.00
2022-10-14T06:06:11.103Z,164.00
2022-10-14T06:07:08.335Z,168.00
2022-10-14T06:08:09.989Z,180.00
2022-10-14T06:09:11.472Z,188.00
2022-10-14T06:10:09.999Z,196.00
2022-10-14T06:11:10.038Z,204.00
2022-10-14T06:12:10.008Z,212.00
2022-10-14T06:13:10.051Z,224.00
2022-10-14T06:14:09.988Z,232.00
2022-10-14T06:15:10.016Z,240.00
2022-10-14T06:16:09.994Z,244.00
2022-10-14T06:17:08.312Z,248.00
2022-10-14T06:18:08.320Z,256.00
2022-10-14T06:19:10.005Z,272.00
2022-10-14T06:20:08.336Z,280.00
2022-10-14T06:21:09.383Z,296.00
2022-10-14T06:22:10.031Z,300.00
2022-10-14T06:23:08.337Z,296.00
2022-10-14T06:24:08.369Z,304.00
2022-10-14T06:25:08.287Z,316.00
2022-10-14T06:26:08.268Z,316.00
2022-10-14T06:27:10.050Z,316.00
2022-10-14T06:28:08.271Z,328.00
2022-10-14T06:29:10.028Z,340.00
2022-10-14T06:30:10.005Z,356.00
2022-10-14T06:31:10.008Z,364.00
2022-10-14T06:32:10.031Z,376.00
2022-10-14T06:33:10.061Z,392.00
2022-10-14T06:34:10.102Z,404.00
2022-10-14T06:35:10.130Z,420.00
2022-10-14T06:36:10.020Z,440.00
2022-10-14T06:37:10.025Z,456.00
2022-10-14T06:38:10.074Z,484.00
2022-10-14T06:39:10.026Z,516.00
2022-10-14T06:40:08.289Z,548.00
2022-10-14T06:41:10.031Z,576.00
2022-10-14T06:42:13.070Z,600.00
2022-10-14T06:43:10.013Z,616.00
2022-10-14T06:44:10.034Z,608.00
2022-10-14T06:45:10.020Z,596.00
2022-10-14T06:46:10.014Z,600.00
2022-10-14T06:47:10.041Z,604.00
2022-10-14T06:48:09.762Z,608.00
2022-10-14T06:49:10.033Z,608.00
2022-10-14T06:50:08.205Z,616.00
2022-10-14T06:54:19.892Z,824.00
2022-10-14T06:55:18.106Z,820.00
2022-10-14T06:56:18.107Z,816.00
2022-10-14T06:57:19.865Z,812.00
2022-10-14T06:58:18.113Z,808.00
2022-10-14T06:59:19.842Z,808.00
2022-10-14T07:00:18.107Z,812.00
2022-10-14T07:01:19.919Z,820.00
2022-10-14T07:02:20.175Z,820.00
2022-10-14T07:03:19.845Z,832.00
2022-10-14T07:04:18.098Z,844.00
2022-10-14T07:05:19.835Z,848.00
2022-10-14T07:06:18.078Z,856.00
2022-10-14T07:07:19.843Z,864.00
2022-10-14T07:08:18.070Z,884.00
2022-10-14T07:09:19.829Z,880.00
2022-10-14T07:10:18.113Z,860.00
2022-10-14T07:11:18.069Z,864.00
2022-10-14T07:12:20.052Z,896.00
2022-10-14T07:13:18.059Z,940.00
2022-10-14T07:14:19.876Z,1028.00
2022-10-14T07:15:18.079Z,1060.00
2022-10-14T07:16:18.068Z,1120.00
2022-10-14T07:17:18.057Z,1200.00
2022-10-14T07:18:19.918Z,1272.00
2022-10-14T07:19:18.043Z,1428.00
2022-10-14T07:20:18.058Z,1652.00
2022-10-14T07:21:18.032Z,1732.00
2022-10-14T07:22:18.056Z,1928.00
2022-10-14T07:23:19.863Z,1840.00
2022-10-14T07:24:18.036Z,1100.00
2022-10-14T07:25:18.027Z,1244.00
2022-10-14T07:26:19.898Z,1488.00
2022-10-14T07:27:20.290Z,1788.00
2022-10-14T07:28:19.900Z,1672.00
2022-10-14T07:29:19.890Z,1528.00
2022-10-14T07:30:19.865Z,1324.00
2022-10-14T07:31:19.850Z,1216.00
2022-10-14T07:32:19.863Z,1300.00
2022-10-14T07:33:19.870Z,1884.00
2022-10-14T07:34:19.881Z,2176.00
2022-10-14T07:35:19.905Z,2396.00
2022-10-14T07:36:22.385Z,2480.00
2022-10-14T07:37:20.194Z,2484.00
2022-10-14T07:38:19.966Z,2468.00
2022-10-14T07:39:19.873Z,2448.00
2022-10-14T07:40:18.989Z,2496.00
2022-10-14T07:41:19.880Z,2516.00
2022-10-14T07:43:19.915Z,2540.00
2022-10-14T07:44:23.556Z,2348.00
2022-10-14T07:45:19.876Z,2296.00
2022-10-14T07:46:19.872Z,2096.00
2022-10-14T07:47:20.331Z,2440.00
2022-10-14T07:48:27.342Z,2276.00
2022-10-14T07:49:19.882Z,1452.00
2022-10-14T07:50:19.929Z,1480.00
2022-10-14T07:51:19.884Z,2096.00
2022-10-14T07:52:17.963Z,1664.00
2022-10-14T07:53:17.981Z,2720.00
2022-10-14T07:54:18.026Z,2792.00
2022-10-14T07:55:17.954Z,1388.00
2022-10-14T07:56:19.903Z,1316.00
2022-10-14T07:57:17.953Z,1292.00
2022-10-14T07:58:19.918Z,1268.00
2022-10-14T07:59:19.912Z,1356.00
2022-10-14T08:00:19.878Z,1936.00
2022-10-14T08:01:19.948Z,3020.00
2022-10-14T08:02:19.905Z,2964.00
2022-10-14T08:03:19.884Z,1696.00
2022-10-14T08:04:19.905Z,1724.00
2022-10-14T08:05:37.251Z,1532.00
2022-10-14T08:06:19.916Z,1464.00
2022-10-14T08:07:17.934Z,1532.00
2022-10-14T08:08:19.898Z,2312.00
2022-10-14T08:09:20.003Z,1572.00
2022-10-14T08:10:17.935Z,1840.00
2022-10-14T08:11:19.887Z,3092.00
2022-10-14T08:12:20.066Z,2808.00
2022-10-14T08:13:19.923Z,2444.00
2022-10-14T08:14:17.937Z,3520.00
2022-10-14T08:15:19.894Z,3660.00
2022-10-14T08:16:19.897Z,3740.00
2022-10-14T08:17:19.901Z,2876.00
2022-10-14T08:18:19.433Z,2904.00
2022-10-14T08:19:18.960Z,3416.00
2022-10-14T08:21:19.419Z,2060.00
2022-10-14T08:22:17.916Z,1648.00
2022-10-14T08:23:19.843Z,1448.00
2022-10-14T08:24:19.416Z,1328.00
2022-10-14T08:25:17.909Z,1380.00
2022-10-14T08:26:19.459Z,1412.00
2022-10-14T08:27:17.919Z,1284.00
2022-10-14T08:28:18.010Z,1168.00
2022-10-14T08:29:19.424Z,1012.00
2022-10-14T08:30:17.941Z,868.00
2022-10-14T08:32:17.893Z,852.00
2022-10-14T08:33:20.407Z,852.00
2022-10-14T08:34:17.900Z,864.00
2022-10-14T08:35:17.884Z,976.00
2022-10-14T08:36:19.427Z,1084.00
2022-10-14T08:37:17.899Z,1280.00
2022-10-14T08:38:17.880Z,1408.00
2022-10-14T08:39:19.427Z,1492.00
2022-10-14T08:40:19.445Z,1600.00
2022-10-14T08:41:19.416Z,1668.00
2022-10-14T08:42:19.812Z,1680.00
2022-10-14T08:43:19.414Z,1648.00
2022-10-14T08:44:17.868Z,1792.00
2022-10-14T08:45:17.865Z,1944.00
2022-10-14T08:46:17.878Z,2152.00
2022-10-14T08:47:19.459Z,2228.00
2022-10-14T08:48:19.447Z,2452.00
2022-10-14T08:49:19.500Z,2372.00
2022-10-14T08:50:17.877Z,2244.00
2022-10-14T08:51:17.870Z,2004.00
2022-10-14T08:52:19.784Z,1916.00
2022-10-14T08:53:19.444Z,2088.00
2022-10-14T08:54:17.857Z,2268.00
2022-10-14T08:55:17.857Z,2304.00
2022-10-14T08:56:17.872Z,2276.00
2022-10-14T08:57:17.867Z,2256.00
2022-10-14T08:58:19.629Z,2316.00
2022-10-14T08:59:17.842Z,2412.00
2022-10-14T09:00:17.852Z,2364.00
2022-10-14T09:01:17.848Z,2436.00
2022-10-14T09:02:19.749Z,2484.00
2022-10-14T09:03:19.431Z,2488.00
2022-10-14T09:04:19.452Z,2276.00
2022-10-14T09:05:19.448Z,2248.00
2022-10-14T09:06:19.434Z,2504.00
2022-10-14T09:07:19.472Z,2608.00
2022-10-14T09:08:19.480Z,2424.00
2022-10-14T09:09:19.452Z,2260.00
2022-10-14T09:10:19.442Z,2236.00
2022-10-14T09:11:19.440Z,2304.00
2022-10-14T09:12:19.806Z,2280.00
2022-10-14T09:13:18.506Z,2088.00
2022-10-14T09:14:19.454Z,2144.00
2022-10-14T09:15:19.455Z,2356.00
2022-10-14T09:16:19.447Z,2584.00
2022-10-14T09:17:19.444Z,2472.00
2022-10-14T09:18:19.478Z,2380.00
2022-10-14T09:19:19.473Z,2676.00
2022-10-14T09:20:17.818Z,3296.00
2022-10-14T09:21:27.874Z,2864.00
2022-10-14T09:22:17.820Z,3132.00
2022-10-14T09:23:19.486Z,3356.00
2022-10-14T09:24:18.498Z,3372.00
2022-10-14T09:25:19.474Z,2772.00
2022-10-14T09:26:17.819Z,3356.00
2022-10-14T09:27:19.829Z,2988.00
2022-10-14T09:28:19.545Z,2680.00
2022-10-14T09:29:19.543Z,2268.00
2022-10-14T09:30:17.875Z,2136.00
2022-10-14T09:31:17.817Z,2180.00
2022-10-14T09:32:19.625Z,2048.00
2022-10-14T09:33:17.825Z,2080.00
2022-10-14T09:34:17.822Z,1984.00
2022-10-14T09:35:19.498Z,1952.00
2022-10-14T09:36:17.823Z,2236.00
2022-10-14T09:37:19.797Z,2812.00
2022-10-14T09:38:19.480Z,2896.00
2022-10-14T09:39:18.502Z,2872.00
2022-10-14T09:40:19.484Z,2184.00
2022-10-14T09:41:19.537Z,1944.00
2022-10-14T09:42:19.483Z,1788.00
2022-10-14T09:43:19.521Z,1468.00
2022-10-14T09:44:19.486Z,1192.00
2022-10-14T09:45:19.509Z,1156.00
2022-10-14T09:46:19.469Z,1260.00
2022-10-14T09:47:19.542Z,1420.00
2022-10-14T09:48:19.477Z,1752.00
2022-10-14T09:49:19.498Z,2024.00
2022-10-14T09:50:19.492Z,2160.00
2022-10-14T09:51:19.544Z,2192.00
2022-10-14T09:52:17.777Z,2228.00
2022-10-14T09:53:17.822Z,2272.00
2022-10-14T09:54:19.494Z,2232.00
2022-10-14T09:55:19.492Z,2204.00
2022-10-14T09:56:18.988Z,2240.00
2022-10-14T09:57:17.784Z,2280.00
2022-10-14T09:58:17.767Z,2360.00
2022-10-14T09:59:19.510Z,2308.00
2022-10-14T10:00:17.832Z,2232.00
2022-10-14T10:01:17.832Z,2184.00
2022-10-14T10:02:17.775Z,1864.00
2022-10-14T10:13:21.660Z,1040.00
2022-10-14T10:14:21.657Z,1080.00
2022-10-14T10:15:20.040Z,1092.00
2022-10-14T10:16:21.160Z,984.00
2022-10-14T10:17:20.315Z,892.00
2022-10-14T10:18:21.655Z,852.00
2022-10-14T10:19:20.012Z,916.00
2022-10-14T10:20:21.665Z,1024.00
2022-10-14T10:21:20.039Z,1112.00
2022-10-14T10:22:21.649Z,1136.00
2022-10-14T10:23:21.681Z,1224.00
2022-10-14T10:24:20.041Z,1404.00
2022-10-14T10:25:20.991Z,1604.00
2022-10-14T10:26:21.669Z,1732.00
2022-10-14T10:27:21.902Z,1804.00
2022-10-14T10:28:20.053Z,1884.00
2022-10-14T10:29:20.067Z,1920.00
2022-10-14T10:30:21.681Z,2000.00
2022-10-14T10:31:21.835Z,2280.00
2022-10-14T10:32:21.939Z,2792.00
2022-10-14T10:33:19.980Z,3052.00
2022-10-14T10:34:21.668Z,3136.00
2022-10-14T10:35:21.671Z,3140.00
2022-10-14T10:36:21.724Z,3224.00
2022-10-14T10:37:21.960Z,3340.00
2022-10-14T10:38:21.645Z,3460.00
2022-10-14T10:39:21.645Z,3504.00
2022-10-14T10:40:21.671Z,3556.00
2022-10-14T10:41:19.982Z,3500.00
2022-10-14T10:42:20.237Z,3368.00
2022-10-14T10:43:19.989Z,3012.00
2022-10-14T10:44:19.987Z,2768.00
2022-10-14T10:45:21.687Z,2796.00
2022-10-14T10:46:21.697Z,3144.00
2022-10-14T10:47:21.698Z,3632.00
2022-10-14T10:48:21.663Z,3664.00
2022-10-14T10:49:21.846Z,3556.00
2022-10-14T10:50:21.661Z,3628.00
2022-10-14T10:51:21.679Z,3304.00
2022-10-14T10:52:21.887Z,3076.00
2022-10-14T10:53:21.676Z,3404.00
2022-10-14T10:54:21.682Z,3880.00
2022-10-14T10:55:21.756Z,4228.00
2022-10-14T10:56:21.670Z,4544.00
2022-10-14T10:57:21.911Z,4480.00
2022-10-14T10:58:21.671Z,4336.00
2022-10-14T10:59:21.844Z,4212.00
2022-10-14T11:00:21.792Z,4728.00
2022-10-14T11:01:21.872Z,5820.00
2022-10-14T11:02:22.011Z,6476.00
2022-10-14T11:03:21.688Z,6904.00
2022-10-14T11:04:23.718Z,6104.00
2022-10-14T11:05:21.693Z,6980.00
2022-10-14T11:06:21.787Z,6204.00
2022-10-14T11:07:26.943Z,6476.00
2022-10-14T11:08:21.757Z,5704.00
2022-10-14T11:09:21.708Z,5736.00
2022-10-14T11:10:21.747Z,7452.00
2022-10-14T11:11:21.701Z,5204.00
2022-10-14T11:12:20.222Z,4888.00
2022-10-14T11:13:19.967Z,5104.00
2022-10-14T11:14:19.936Z,6088.00
2022-10-14T11:15:19.955Z,7320.00
2022-10-14T11:16:21.716Z,6500.00
2022-10-14T11:17:22.158Z,5580.00
2022-10-14T11:18:21.699Z,7032.00
2022-10-14T11:19:21.700Z,6256.00
2022-10-14T11:20:21.761Z,6156.00
2022-10-14T11:21:21.781Z,5416.00
2022-10-14T11:22:22.008Z,4608.00
2022-10-14T11:23:21.723Z,4604.00
2022-10-14T11:24:21.711Z,4852.00
2022-10-14T11:25:21.711Z,4976.00
2022-10-14T11:26:21.734Z,7092.00
2022-10-14T11:27:24.067Z,6416.00
2022-10-14T11:28:20.086Z,6624.00
2022-10-14T11:29:21.720Z,6212.00
2022-10-14T11:30:21.714Z,5904.00
2022-10-14T11:31:21.703Z,5484.00
2022-10-14T11:32:21.697Z,4768.00
2022-10-14T11:33:21.744Z,4668.00
2022-10-14T11:34:21.772Z,4900.00
2022-10-14T11:35:21.764Z,4740.00
2022-10-14T11:36:21.701Z,4504.00
2022-10-14T11:37:22.143Z,4096.00
2022-10-14T11:38:19.941Z,3684.00
2022-10-14T11:39:21.721Z,3184.00
2022-10-14T11:40:19.935Z,2800.00
2022-10-14T11:41:19.941Z,2448.00
2022-10-14T11:42:20.247Z,2088.00
2022-10-14T11:43:19.966Z,1816.00
2022-10-14T11:44:21.779Z,1772.00
2022-10-14T11:45:21.372Z,1804.00
2022-10-14T11:46:20.044Z,1624.00
2022-10-14T11:47:22.154Z,1356.00
2022-10-14T11:48:19.943Z,1188.00
2022-10-14T11:49:19.960Z,1124.00
2022-10-14T11:50:21.730Z,1176.00
2022-10-14T11:51:19.955Z,1236.00
2022-10-14T11:52:21.711Z,1348.00
2022-10-14T11:53:21.735Z,1540.00
2022-10-14T11:54:19.939Z,1640.00
2022-10-14T11:55:21.720Z,1640.00
2022-10-14T11:56:19.965Z,1688.00
2022-10-14T11:57:22.050Z,1748.00
2022-10-14T11:58:21.779Z,1860.00
2022-10-14T11:59:19.951Z,2072.00
2022-10-14T12:00:21.833Z,2064.00
2022-10-14T12:01:19.954Z,1848.00
2022-10-14T12:02:20.525Z,1816.00
2022-10-14T12:03:21.762Z,1884.00
2022-10-14T12:04:21.725Z,2124.00
2022-10-14T12:05:19.955Z,2340.00
2022-10-14T12:06:19.940Z,2244.00
2022-10-14T12:07:19.981Z,2152.00
2022-10-14T12:08:21.246Z,1920.00
2022-10-14T12:09:19.931Z,1784.00
2022-10-14T12:10:19.995Z,1784.00
2022-10-14T12:11:21.752Z,1796.00
2022-10-14T12:12:20.245Z,1840.00
2022-10-14T12:13:21.747Z,1884.00
2022-10-14T12:14:20.947Z,1840.00
2022-10-14T12:15:20.111Z,1760.00
2022-10-14T12:16:21.775Z,1684.00
2022-10-14T12:17:20.162Z,1588.00
2022-10-14T12:18:19.933Z,1588.00
2022-10-14T12:19:21.751Z,1568.00
2022-10-14T12:20:21.748Z,1612.00
2022-10-14T12:21:21.765Z,1608.00
2022-10-14T12:22:22.141Z,1552.00
2022-10-14T12:23:21.799Z,1544.00
2022-10-14T12:24:21.787Z,1552.00
2022-10-14T12:25:21.750Z,1516.00
2022-10-14T12:26:21.747Z,1472.00
2022-10-14T12:27:21.824Z,1428.00
2022-10-14T12:28:21.840Z,1492.00
2022-10-14T12:29:21.773Z,1612.00
2022-10-14T12:30:21.766Z,1788.00
2022-10-14T12:31:21.767Z,1992.00
2022-10-14T12:32:22.213Z,2172.00
2022-10-14T12:33:23.188Z,2324.00
2022-10-14T12:34:21.761Z,2488.00
2022-10-14T12:35:21.752Z,2568.00
2022-10-14T12:36:21.781Z,2588.00
2022-10-14T12:37:25.715Z,2516.00
2022-10-14T12:38:21.772Z,2456.00
2022-10-14T12:39:21.768Z,2668.00
2022-10-14T12:40:21.759Z,2668.00
2022-10-14T12:41:21.839Z,2440.00
2022-10-14T12:42:22.050Z,2296.00
2022-10-14T12:43:19.908Z,2180.00
2022-10-14T12:44:19.907Z,2116.00
2022-10-14T12:45:19.899Z,2160.00
2022-10-14T12:46:19.904Z,2252.00
2022-10-14T12:47:22.085Z,2272.00
2022-10-14T12:48:19.907Z,2256.00
2022-10-14T12:49:19.890Z,2204.00
2022-10-14T12:50:21.789Z,2176.00
2022-10-14T12:51:19.899Z,2148.00
2022-10-14T12:52:21.786Z,2080.00
2022-10-14T12:53:19.895Z,1972.00
2022-10-14T12:54:21.784Z,1892.00
2022-10-14T12:55:21.794Z,1752.00
2022-10-14T12:56:21.774Z,1552.00
2022-10-14T12:57:21.913Z,1380.00
2022-10-14T12:58:21.783Z,1308.00
2022-10-14T12:59:19.894Z,1220.00
2022-10-14T13:00:21.812Z,1152.00
2022-10-14T13:01:21.905Z,1144.00
2022-10-14T13:02:21.998Z,1136.00
2022-10-14T13:03:21.817Z,1096.00
2022-10-14T13:04:21.799Z,1000.00
2022-10-14T13:05:19.878Z,904.00
2022-10-14T13:06:19.944Z,872.00
2022-10-14T13:07:39.740Z,896.00
2022-10-14T13:08:21.843Z,980.00
2022-10-14T13:09:21.821Z,1064.00
2022-10-14T13:10:19.882Z,1128.00
2022-10-14T13:11:19.880Z,1168.00
2022-10-14T13:12:19.868Z,1192.00
2022-10-14T13:13:20.243Z,1216.00
2022-10-14T13:14:21.828Z,1196.00
2022-10-14T13:15:19.891Z,1140.00
2022-10-14T13:16:21.815Z,1108.00
2022-10-14T13:17:19.858Z,1076.00
2022-10-14T13:18:19.860Z,1088.00
2022-10-14T13:19:21.827Z,1164.00
2022-10-14T13:20:19.862Z,1296.00
2022-10-14T13:21:21.807Z,1452.00
2022-10-14T13:22:19.871Z,1540.00
2022-10-14T13:23:21.854Z,1488.00
2022-10-14T13:24:19.873Z,1428.00
2022-10-14T13:25:19.839Z,1392.00
2022-10-14T13:26:19.859Z,1336.00
2022-10-14T13:27:22.043Z,1312.00
2022-10-14T13:28:19.889Z,1324.00
2022-10-14T13:29:21.811Z,1276.00
2022-10-14T13:30:19.849Z,1216.00
2022-10-14T13:31:21.815Z,1284.00
2022-10-14T13:32:23.774Z,1404.00
2022-10-14T13:33:19.833Z,1484.00
2022-10-14T13:34:21.831Z,1536.00
2022-10-14T13:35:19.835Z,1548.00
2022-10-14T13:36:20.834Z,1536.00
2022-10-14T13:37:21.337Z,1516.00
2022-10-14T13:38:21.345Z,1500.00
2022-10-14T13:39:21.336Z,1496.00
2022-10-14T13:40:21.329Z,1488.00
2022-10-14T13:41:21.316Z,1456.00
2022-10-14T13:42:21.665Z,1412.00
2022-10-14T13:43:21.318Z,1384.00
2022-10-14T13:44:21.321Z,1352.00
2022-10-14T13:45:21.337Z,1308.00
2022-10-14T13:46:19.806Z,1264.00
2022-10-14T13:47:21.647Z,1216.00
2022-10-14T13:48:21.340Z,1156.00
2022-10-14T13:49:19.796Z,1088.00
2022-10-14T13:50:21.351Z,1044.00
2022-10-14T13:51:37.008Z,1012.00
2022-10-14T13:52:21.690Z,964.00
2022-10-14T13:53:21.356Z,896.00
2022-10-14T13:54:21.345Z,824.00
2022-10-14T13:55:21.343Z,760.00
2022-10-14T13:56:21.349Z,720.00
2022-10-14T13:58:21.397Z,696.00
2022-10-14T13:59:39.949Z,700.00
2022-10-14T14:01:21.394Z,644.00
2022-10-14T14:02:21.691Z,616.00
2022-10-14T14:03:21.368Z,604.00
2022-10-14T14:04:21.346Z,608.00
2022-10-14T14:05:21.404Z,636.00
2022-10-14T14:06:21.367Z,656.00
2022-10-14T14:08:38.769Z,692.00
2022-10-14T14:09:21.480Z,664.00
2022-10-14T14:10:21.379Z,636.00
2022-10-14T14:11:21.354Z,652.00
2022-10-14T14:12:21.354Z,656.00
2022-10-14T14:13:21.360Z,652.00
2022-10-14T14:14:21.363Z,644.00
2022-10-14T14:15:21.375Z,640.00
2022-10-14T14:16:21.495Z,604.00
2022-10-14T14:17:21.355Z,564.00
2022-10-14T14:18:21.352Z,520.00
2022-10-14T14:19:21.354Z,484.00
2022-10-14T14:20:21.381Z,452.00
2022-10-14T14:21:21.384Z,420.00
2022-10-14T14:22:19.737Z,388.00
2022-10-14T14:23:19.741Z,376.00
2022-10-14T14:24:21.381Z,360.00
2022-10-14T14:25:37.000Z,380.00
2022-10-14T14:26:21.550Z,432.00
2022-10-14T14:27:21.657Z,488.00
2022-10-14T14:28:21.461Z,528.00
2022-10-14T14:29:21.398Z,544.00
2022-10-14T14:30:21.366Z,552.00
2022-10-14T14:31:21.421Z,596.00
2022-10-14T14:32:21.391Z,644.00
2022-10-14T14:33:21.413Z,684.00
2022-10-14T14:34:21.367Z,708.00
2022-10-14T14:35:22.139Z,700.00
2022-10-14T14:36:27.716Z,676.00
2022-10-14T14:38:21.409Z,712.00
2022-10-14T14:39:21.370Z,720.00
2022-10-14T14:40:21.390Z,708.00
2022-10-14T14:41:21.428Z,704.00
2022-10-14T14:42:19.698Z,712.00
2022-10-14T14:43:21.388Z,712.00
2022-10-14T14:44:25.864Z,700.00
2022-10-14T14:45:21.372Z,660.00
2022-10-14T14:46:19.687Z,628.00
2022-10-14T14:47:20.759Z,620.00
2022-10-14T14:48:21.387Z,628.00
2022-10-14T14:49:21.385Z,628.00
2022-10-14T14:50:32.575Z,608.00
2022-10-14T14:51:21.404Z,536.00
2022-10-14T14:52:20.449Z,464.00
2022-10-14T14:53:19.680Z,452.00
2022-10-14T14:54:19.668Z,484.00
2022-10-14T14:55:19.675Z,516.00
2022-10-14T14:56:19.667Z,584.00
2022-10-14T14:57:21.695Z,632.00
2022-10-14T14:58:19.666Z,640.00
2022-10-14T14:59:21.383Z,624.00
2022-10-14T15:00:19.674Z,620.00
2022-10-14T15:01:21.394Z,644.00
2022-10-14T15:02:21.878Z,700.00
2022-10-14T15:03:20.666Z,744.00
2022-10-14T15:04:21.416Z,760.00
2022-10-14T15:05:20.640Z,736.00
2022-10-14T15:06:21.397Z,700.00
2022-10-14T15:07:21.793Z,672.00
2022-10-14T15:08:21.451Z,660.00
2022-10-14T15:09:19.630Z,672.00
2022-10-14T15:10:21.450Z,684.00
2022-10-14T15:11:21.397Z,672.00
2022-10-14T15:12:21.690Z,656.00
2022-10-14T15:13:19.648Z,632.00
2022-10-14T15:14:22.134Z,620.00
2022-10-14T15:15:21.448Z,612.00
2022-10-14T15:16:21.419Z,628.00
2022-10-14T15:17:21.409Z,656.00
2022-10-14T15:18:21.415Z,680.00
2022-10-14T15:19:21.409Z,696.00
2022-10-14T15:20:21.446Z,700.00
2022-10-14T15:21:21.406Z,696.00
2022-10-14T15:22:23.987Z,692.00
2022-10-14T15:23:21.416Z,672.00
2022-10-14T15:24:21.431Z,652.00
2022-10-14T15:25:21.412Z,632.00
2022-10-14T15:26:21.443Z,616.00
2022-10-14T15:27:21.420Z,596.00
2022-10-14T15:28:20.609Z,588.00
2022-10-14T15:30:21.459Z,588.00
2022-10-14T15:31:21.458Z,588.00
2022-10-14T15:32:21.770Z,584.00
2022-10-14T15:33:19.585Z,556.00
2022-10-14T15:34:21.453Z,512.00
2022-10-14T15:35:21.431Z,436.00
2022-10-14T15:36:21.433Z,360.00
2022-10-14T15:37:21.431Z,304.00
2022-10-14T15:38:21.488Z,268.00
2022-10-14T15:39:20.565Z,252.00
2022-10-14T15:40:21.434Z,240.00
2022-10-14T15:41:21.453Z,224.00
2022-10-14T15:42:21.900Z,212.00
2022-10-14T15:43:21.425Z,204.00
2022-10-14T15:44:21.434Z,200.00
2022-10-14T15:45:21.437Z,192.00
2022-10-14T15:46:21.459Z,184.00
2022-10-14T15:47:21.469Z,184.00
2022-10-14T15:48:21.461Z,188.00
2022-10-14T15:49:21.428Z,184.00
2022-10-14T15:50:21.485Z,184.00
2022-10-14T15:51:21.447Z,176.00
2022-10-14T15:52:24.440Z,172.00
2022-10-14T15:53:21.458Z,172.00
2022-10-14T15:54:21.450Z,156.00
2022-10-14T15:55:21.471Z,148.00
2022-10-14T15:56:21.497Z,136.00
2022-10-14T15:57:21.729Z,120.00
2022-10-14T15:58:20.513Z,112.00
2022-10-14T15:59:21.452Z,108.00
2022-10-14T16:00:21.444Z,100.00
2022-10-14T16:01:21.601Z,104.00
2022-10-14T16:12:34.159Z,40.00
2022-10-14T16:13:35.690Z,40.00
2022-10-14T16:14:35.702Z,36.00
2022-10-14T16:15:35.678Z,32.00
2022-10-14T16:16:34.107Z,28.00
2022-10-14T16:17:35.690Z,28.00
2022-10-14T16:18:34.083Z,24.00
2022-10-14T16:19:35.218Z,24.00
2022-10-14T16:20:34.082Z,20.00
2022-10-14T16:21:34.714Z,16.00
2022-10-14T16:22:35.726Z,20.00
2022-10-14T16:23:35.710Z,16.00
2022-10-14T16:24:35.209Z,16.00
2022-10-14T16:25:34.056Z,16.00
2022-10-14T16:26:34.064Z,16.00
2022-10-14T16:27:35.711Z,16.00
2022-10-14T16:28:35.253Z,16.00
2022-10-14T16:29:35.693Z,16.00
2022-10-14T16:30:35.719Z,16.00
2022-10-14T16:31:35.034Z,12.00
2022-10-14T16:32:34.028Z,12.00
2022-10-14T16:33:35.730Z,16.00
2022-10-14T16:34:35.040Z,16.00
2022-10-14T16:35:35.731Z,16.00
2022-10-14T16:36:35.082Z,16.00
2022-10-14T16:37:35.729Z,12.00
2022-10-14T16:38:35.726Z,12.00
2022-10-14T16:39:35.727Z,12.00
2022-10-14T16:40:36.858Z,8.00
2022-10-14T16:41:35.710Z,8.00
2022-10-14T16:42:35.729Z,8.00
2022-10-14T16:43:35.722Z,8.00
2022-10-14T16:44:35.752Z,4.00
2022-10-14T16:45:33.990Z,4.00
2022-10-14T16:46:35.715Z,4.00
2022-10-14T16:47:35.747Z,4.00
2022-10-14T16:48:35.768Z,4.00
2022-10-14T16:49:35.735Z,4.00
2022-10-14T16:50:35.720Z,4.00
2022-10-14T16:51:34.038Z,0.00
2022-10-14T16:52:33.994Z,0.00
2022-10-14T16:53:35.734Z,0.00
2022-10-14T16:54:34.972Z,0.00
2022-10-14T16:55:35.751Z,0.00